createdAt,value
2022-10-01T00:00:59.379Z,0
2022-10-01T00:02:00.114Z,0
2022-10-01T00:03:00.791Z,0
2022-10-01T00:04:01.347Z,0
2022-10-01T00:05:01.940Z,0
2022-10-01T00:06:02.535Z,0
2022-10-01T00:07:03.129Z,0
2022-10-01T00:08:03.724Z,0
2022-10-01T00:09:04.318Z,0
2022-10-01T00:10:04.912Z,0
2022-10-01T00:11:05.509Z,0
2022-10-01T00:12:06.101Z,0
2022-10-01T00:13:06.694Z,0
2022-10-01T00:14:07.290Z,0
2022-10-01T00:15:08.925Z,0
2022-10-01T00:16:09.486Z,0
2022-10-01T00:17:10.065Z,0
2022-10-01T00:18:10.658Z,0
2022-10-01T00:19:11.250Z,0
2022-10-01T00:20:14.732Z,0
2022-10-01T00:21:13.430Z,0
2022-10-01T00:22:14.026Z,0
2022-10-01T00:23:14.619Z,0
2022-10-01T00:24:15.211Z,0
2022-10-01T00:25:15.827Z,0
2022-10-01T00:26:16.420Z,0
2022-10-01T00:27:17.013Z,0
2022-10-01T00:28:17.660Z,0
2022-10-01T00:29:18.204Z,0
2022-10-01T00:30:18.800Z,0
2022-10-01T00:31:19.440Z,0
2022-10-01T00:32:20.002Z,0
2022-10-01T00:33:20.596Z,0
2022-10-01T00:34:21.191Z,0
2022-10-01T00:35:21.785Z,0
2022-10-01T00:36:22.375Z,0
2022-10-01T00:37:22.970Z,0
2022-10-01T00:38:23.564Z,0
2022-10-01T00:39:24.155Z,0
2022-10-01T00:40:24.750Z,0
2022-10-01T00:41:25.344Z,0
2022-10-01T00:42:25.938Z,0
2022-10-01T00:43:26.531Z,0
2022-10-01T00:44:27.144Z,0
2022-10-01T00:45:27.797Z,0
2022-10-01T00:46:28.420Z,0
2022-10-01T00:47:29.011Z,0
2022-10-01T00:48:29.608Z,0
2022-10-01T00:49:30.201Z,0
2022-10-01T00:50:30.794Z,0
2022-10-01T00:51:31.712Z,0
2022-10-01T00:52:32.510Z,0
2022-10-01T00:53:33.103Z,0
2022-10-01T00:54:33.697Z,0
2022-10-01T00:55:34.291Z,0
2022-10-01T00:56:34.884Z,0
2022-10-01T00:57:35.477Z,0
2022-10-01T00:58:36.104Z,0
2022-10-01T00:59:36.681Z,0
2022-10-01T01:00:37.277Z,0
2022-10-01T01:01:38.093Z,0
2022-10-01T01:02:38.850Z,0
2022-10-01T01:03:39.411Z,0
2022-10-01T01:04:40.008Z,0
2022-10-01T01:05:40.598Z,0
2022-10-01T01:06:41.190Z,0
2022-10-01T01:07:41.781Z,0
2022-10-01T01:08:42.376Z,0
2022-10-01T01:09:42.990Z,0
2022-10-01T01:10:43.585Z,0
2022-10-01T01:11:44.181Z,0
2022-10-01T01:12:44.771Z,0
2022-10-01T01:13:45.361Z,0
2022-10-01T01:14:45.958Z,0
2022-10-01T01:15:46.643Z,0
2022-10-01T01:16:47.228Z,0
2022-10-01T01:17:47.840Z,0
2022-10-01T01:18:48.435Z,0
2022-10-01T01:19:49.028Z,0
2022-10-01T01:20:49.623Z,0
2022-10-01T01:21:50.229Z,0
2022-10-01T01:22:50.815Z,0
2022-10-01T01:23:51.400Z,0
2022-10-01T01:24:52.006Z,0
2022-10-01T01:25:52.586Z,0
2022-10-01T01:26:53.181Z,0
2022-10-01T01:27:53.850Z,0
2022-10-01T01:28:54.397Z,0
2022-10-01T01:29:54.992Z,0
2022-10-01T01:30:55.616Z,0
2022-10-01T01:31:56.195Z,0
2022-10-01T01:32:56.789Z,0
2022-10-01T01:33:57.406Z,0
2022-10-01T01:34:58.000Z,0
2022-10-01T01:35:58.593Z,0
2022-10-01T01:36:59.190Z,0
2022-10-01T01:37:59.779Z,0
2022-10-01T01:39:00.374Z,0
2022-10-01T01:40:00.968Z,0
2022-10-01T01:41:01.562Z,0
2022-10-01T01:42:02.157Z,0
2022-10-01T01:43:02.751Z,0
2022-10-01T01:44:03.344Z,0
2022-10-01T01:45:03.941Z,0
2022-10-01T01:46:04.627Z,0
2022-10-01T01:47:05.190Z,0
2022-10-01T01:48:05.784Z,0
2022-10-01T01:49:06.379Z,0
2022-10-01T01:50:06.978Z,0
2022-10-01T01:51:07.566Z,0
2022-10-01T01:52:08.161Z,0
2022-10-01T01:53:08.755Z,0
2022-10-01T01:54:09.349Z,0
2022-10-01T01:55:09.942Z,0
2022-10-01T01:56:10.535Z,0
2022-10-01T01:57:11.128Z,0
2022-10-01T01:58:11.722Z,0
2022-10-01T01:59:12.316Z,0
2022-10-01T02:00:12.911Z,0
2022-10-01T02:01:13.564Z,0
2022-10-01T02:02:14.184Z,0
2022-10-01T02:03:14.776Z,0
2022-10-01T02:04:15.368Z,0
2022-10-01T02:05:15.968Z,0
2022-10-01T02:06:16.555Z,0
2022-10-01T02:07:17.147Z,0
2022-10-01T02:08:17.744Z,0
2022-10-01T02:09:18.335Z,0
2022-10-01T02:10:18.926Z,0
2022-10-01T02:11:19.521Z,0
2022-10-01T02:12:20.111Z,0
2022-10-01T02:13:20.706Z,0
2022-10-01T02:14:21.300Z,0
2022-10-01T02:15:21.912Z,0
2022-10-01T02:16:22.552Z,0
2022-10-01T02:17:23.109Z,0
2022-10-01T02:18:23.702Z,0
2022-10-01T02:19:24.314Z,0
2022-10-01T02:20:24.904Z,0
2022-10-01T02:21:25.499Z,0
2022-10-01T02:22:26.096Z,0
2022-10-01T02:23:26.685Z,0
2022-10-01T02:24:27.281Z,0
2022-10-01T02:25:27.870Z,0
2022-10-01T02:26:28.462Z,0
2022-10-01T02:27:29.061Z,0
2022-10-01T02:28:29.676Z,0
2022-10-01T02:29:30.246Z,0
2022-10-01T02:30:30.836Z,0
2022-10-01T02:31:31.592Z,0
2022-10-01T02:32:32.040Z,0
2022-10-01T02:33:32.635Z,0
2022-10-01T02:34:33.226Z,0
2022-10-01T02:35:33.821Z,0
2022-10-01T02:36:34.414Z,0
2022-10-01T02:37:35.009Z,0
2022-10-01T02:38:35.603Z,0
2022-10-01T02:39:36.196Z,0
2022-10-01T02:40:36.788Z,0
2022-10-01T02:41:37.382Z,0
2022-10-01T02:42:37.978Z,0
2022-10-01T02:43:42.804Z,0
2022-10-01T02:44:39.178Z,0
2022-10-01T02:45:39.827Z,0
2022-10-01T02:46:40.378Z,0
2022-10-01T02:47:40.968Z,0
2022-10-01T02:48:41.560Z,0
2022-10-01T02:49:42.155Z,0
2022-10-01T02:50:42.745Z,0
2022-10-01T02:51:43.358Z,0
2022-10-01T02:52:43.951Z,0
2022-10-01T02:53:44.545Z,0
2022-10-01T02:54:45.136Z,0
2022-10-01T02:55:45.815Z,0
2022-10-01T02:56:49.011Z,0
2022-10-01T02:57:47.927Z,0
2022-10-01T02:58:48.516Z,0
2022-10-01T02:59:49.110Z,0
2022-10-01T03:00:49.701Z,0
2022-10-01T03:01:50.403Z,0
2022-10-01T03:02:51.024Z,0
2022-10-01T03:03:51.582Z,0
2022-10-01T03:04:52.167Z,0
2022-10-01T03:05:52.760Z,0
2022-10-01T03:06:53.353Z,0
2022-10-01T03:07:53.945Z,0
2022-10-01T03:08:54.539Z,0
2022-10-01T03:09:55.132Z,0
2022-10-01T03:10:55.724Z,0
2022-10-01T03:11:56.318Z,0
2022-10-01T03:12:56.908Z,0
2022-10-01T03:13:57.504Z,0
2022-10-01T03:14:58.095Z,0
2022-10-01T03:15:58.725Z,0
2022-10-01T03:16:59.331Z,0
2022-10-01T03:17:59.924Z,0
2022-10-01T03:19:00.551Z,0
2022-10-01T03:20:01.144Z,0
2022-10-01T03:21:01.736Z,0
2022-10-01T03:22:02.332Z,0
2022-10-01T03:23:02.928Z,0
2022-10-01T03:24:03.520Z,0
2022-10-01T03:25:04.111Z,0
2022-10-01T03:26:04.703Z,0
2022-10-01T03:27:05.298Z,0
2022-10-01T03:28:05.954Z,0
2022-10-01T03:29:06.497Z,0
2022-10-01T03:30:07.090Z,0
2022-10-01T03:31:07.770Z,0
2022-10-01T03:32:08.349Z,0
2022-10-01T03:33:08.943Z,0
2022-10-01T03:34:09.539Z,0
2022-10-01T03:35:10.128Z,0
2022-10-01T03:36:10.723Z,0
2022-10-01T03:37:11.324Z,0
2022-10-01T03:38:11.929Z,0
2022-10-01T03:39:12.521Z,0
2022-10-01T03:40:13.119Z,0
2022-10-01T03:41:13.708Z,0
2022-10-01T03:42:14.301Z,0
2022-10-01T03:43:14.892Z,0
2022-10-01T03:44:15.487Z,0
2022-10-01T03:45:16.079Z,0
2022-10-01T03:46:16.718Z,0
2022-10-01T03:47:17.286Z,0
2022-10-01T03:48:17.879Z,0
2022-10-01T03:49:18.469Z,0
2022-10-01T03:50:19.066Z,0
2022-10-01T03:51:20.027Z,0
2022-10-01T03:52:20.585Z,0
2022-10-01T03:53:21.161Z,0
2022-10-01T03:54:21.760Z,0
2022-10-01T03:55:22.349Z,0
2022-10-01T03:56:22.943Z,0
2022-10-01T03:57:23.534Z,0
2022-10-01T03:58:24.130Z,0
2022-10-01T03:59:24.720Z,0
2022-10-01T04:00:25.315Z,0
2022-10-01T04:01:25.933Z,0
2022-10-01T04:02:26.611Z,0
2022-10-01T04:03:27.189Z,0
2022-10-01T04:04:27.783Z,0
2022-10-01T04:05:28.431Z,0
2022-10-01T04:06:28.990Z,0
2022-10-01T04:07:29.584Z,0
2022-10-01T04:08:30.176Z,0
2022-10-01T04:09:30.777Z,0
2022-10-01T04:10:31.365Z,0
2022-10-01T04:11:32.347Z,0
2022-10-01T04:12:33.148Z,0
2022-10-01T04:13:33.740Z,0
2022-10-01T04:14:34.341Z,0
2022-10-01T04:15:34.929Z,0
2022-10-01T04:16:35.610Z,0
2022-10-01T04:17:36.186Z,0
2022-10-01T04:18:36.779Z,0
2022-10-01T04:19:37.373Z,0
2022-10-01T04:20:37.964Z,0
2022-10-01T04:21:38.558Z,0
2022-10-01T04:22:39.150Z,0
2022-10-01T04:23:39.747Z,0
2022-10-01T04:24:40.338Z,0
2022-10-01T04:25:40.937Z,0
2022-10-01T04:26:41.526Z,0
2022-10-01T04:27:42.119Z,0
2022-10-01T04:28:42.712Z,0
2022-10-01T04:29:43.307Z,0
2022-10-01T04:30:43.898Z,0
2022-10-01T04:31:44.519Z,0
2022-10-01T04:32:45.086Z,0
2022-10-01T04:33:45.680Z,0
2022-10-01T04:34:46.278Z,0
2022-10-01T04:35:46.867Z,0
2022-10-01T04:36:47.461Z,0
2022-10-01T04:37:48.055Z,0
2022-10-01T04:38:48.648Z,0
2022-10-01T04:39:49.246Z,0
2022-10-01T04:40:49.839Z,0
2022-10-01T04:41:50.452Z,0
2022-10-01T04:42:51.045Z,0
2022-10-01T04:43:51.638Z,0
2022-10-01T04:44:52.235Z,0
2022-10-01T04:45:52.828Z,0
2022-10-01T04:46:53.504Z,0
2022-10-01T04:47:54.072Z,0
2022-10-01T04:48:54.666Z,0
2022-10-01T04:49:55.260Z,0
2022-10-01T04:50:55.850Z,0
2022-10-01T04:51:56.445Z,0
2022-10-01T04:52:57.038Z,0
2022-10-01T04:53:57.635Z,0
2022-10-01T04:54:58.222Z,0
2022-10-01T04:55:58.818Z,0
2022-10-01T04:56:59.408Z,0
2022-10-01T04:58:00.002Z,0
2022-10-01T04:59:00.594Z,0
2022-10-01T05:00:01.187Z,0
2022-10-01T05:01:02.424Z,0
2022-10-01T05:02:03.096Z,0
2022-10-01T05:03:03.647Z,4
2022-10-01T05:04:04.242Z,4
2022-10-01T05:05:04.837Z,4
2022-10-01T05:06:05.426Z,8
2022-10-01T05:07:06.020Z,4
2022-10-01T05:08:06.614Z,4
2022-10-01T05:09:07.203Z,8
2022-10-01T05:10:07.801Z,8
2022-10-01T05:11:08.391Z,4
2022-10-01T05:12:08.988Z,8
2022-10-01T05:13:09.578Z,8
2022-10-01T05:14:10.191Z,12
2022-10-01T05:15:10.785Z,16
2022-10-01T05:16:11.426Z,16
2022-10-01T05:17:11.973Z,24
2022-10-01T05:18:12.568Z,20
2022-10-01T05:19:13.161Z,28
2022-10-01T05:20:13.755Z,28
2022-10-01T05:21:14.349Z,32
2022-10-01T05:22:14.946Z,36
2022-10-01T05:23:15.538Z,40
2022-10-01T05:24:16.136Z,40
2022-10-01T05:25:16.750Z,48
2022-10-01T05:26:17.340Z,48
2022-10-01T05:27:17.935Z,52
2022-10-01T05:28:22.346Z,56
2022-10-01T05:29:20.117Z,68
2022-10-01T05:30:20.711Z,84
2022-10-01T05:31:21.419Z,100
2022-10-01T05:32:21.999Z,112
2022-10-01T05:33:22.594Z,132
2022-10-01T05:34:23.190Z,144
2022-10-01T05:35:23.785Z,140
2022-10-01T05:36:24.381Z,128
2022-10-01T05:37:24.979Z,124
2022-10-01T05:38:25.574Z,116
2022-10-01T05:39:26.171Z,112
2022-10-01T05:40:26.767Z,132
2022-10-01T05:41:27.364Z,136
2022-10-01T05:42:27.960Z,144
2022-10-01T05:43:28.556Z,164
2022-10-01T05:44:29.151Z,160
2022-10-01T05:45:29.790Z,176
2022-10-01T05:46:30.362Z,176
2022-10-01T05:47:30.955Z,248
2022-10-01T05:48:31.557Z,336
2022-10-01T05:49:32.152Z,344
2022-10-01T05:50:32.748Z,368
2022-10-01T05:51:33.643Z,360
2022-10-01T05:52:34.365Z,292
2022-10-01T05:53:34.963Z,328
2022-10-01T05:54:35.560Z,440
2022-10-01T05:55:36.157Z,520
2022-10-01T05:56:36.755Z,424
2022-10-01T05:57:37.352Z,372
2022-10-01T05:58:37.953Z,384
2022-10-01T05:59:38.547Z,428
2022-10-01T06:00:39.151Z,496
2022-10-01T06:01:39.791Z,572
2022-10-01T06:02:40.413Z,624
2022-10-01T06:03:41.005Z,700
2022-10-01T06:04:41.604Z,752
2022-10-01T06:05:42.203Z,776
2022-10-01T06:06:42.801Z,776
2022-10-01T06:07:43.403Z,780
2022-10-01T06:08:43.997Z,804
2022-10-01T06:09:44.592Z,812
2022-10-01T06:10:45.193Z,812
2022-10-01T06:11:45.786Z,820
2022-10-01T06:12:46.386Z,848
2022-10-01T06:13:46.983Z,880
2022-10-01T06:14:47.583Z,948
2022-10-01T06:15:48.199Z,1056
2022-10-01T06:16:48.861Z,1052
2022-10-01T06:17:49.417Z,908
2022-10-01T06:18:50.015Z,872
2022-10-01T06:19:50.611Z,1016
2022-10-01T06:20:51.210Z,1108
2022-10-01T06:21:51.812Z,1312
2022-10-01T06:22:52.424Z,1088
2022-10-01T06:23:53.021Z,984
2022-10-01T06:24:56.564Z,936
2022-10-01T06:25:55.207Z,936
2022-10-01T06:26:55.809Z,1124
2022-10-01T06:27:56.460Z,1384
2022-10-01T06:28:57.041Z,1652
2022-10-01T06:29:57.638Z,1600
2022-10-01T06:30:58.235Z,1876
2022-10-01T06:31:58.903Z,1856
2022-10-01T06:32:59.455Z,1776
2022-10-01T06:34:00.049Z,1984
2022-10-01T06:35:00.649Z,2000
2022-10-01T06:36:01.269Z,2160
2022-10-01T06:37:01.866Z,1948
2022-10-01T06:38:02.475Z,2264
2022-10-01T06:39:03.068Z,2452
2022-10-01T06:40:03.660Z,2460
2022-10-01T06:41:04.262Z,2656
2022-10-01T06:42:04.856Z,2968
2022-10-01T06:43:05.457Z,2680
2022-10-01T06:44:06.055Z,2664
2022-10-01T06:45:06.653Z,2516
2022-10-01T06:46:07.279Z,2096
2022-10-01T06:47:07.849Z,1796
2022-10-01T06:48:08.445Z,1788
2022-10-01T06:49:09.045Z,1764
2022-10-01T06:50:09.641Z,1936
2022-10-01T06:51:10.239Z,1776
2022-10-01T06:52:10.924Z,1940
2022-10-01T06:53:11.668Z,2060
2022-10-01T06:54:12.264Z,2272
2022-10-01T06:55:16.480Z,2328
2022-10-01T06:56:14.455Z,2308
2022-10-01T06:57:15.055Z,2396
2022-10-01T06:58:15.651Z,2584
2022-10-01T06:59:16.249Z,2464
2022-10-01T07:00:16.869Z,2552
2022-10-01T07:01:17.483Z,2496
2022-10-01T07:02:18.124Z,2432
2022-10-01T07:03:18.688Z,1960
2022-10-01T07:04:19.295Z,1772
2022-10-01T07:05:19.895Z,1756
2022-10-01T07:06:20.494Z,2048
2022-10-01T07:07:21.112Z,1864
2022-10-01T07:08:21.713Z,2072
2022-10-01T07:09:22.331Z,2476
2022-10-01T07:10:22.930Z,2912
2022-10-01T07:11:23.531Z,2988
2022-10-01T07:12:24.130Z,3620
2022-10-01T07:13:24.731Z,3728
2022-10-01T07:14:25.328Z,3784
2022-10-01T07:15:25.929Z,3604
2022-10-01T07:16:26.595Z,3352
2022-10-01T07:17:27.141Z,3496
2022-10-01T07:18:27.739Z,3204
2022-10-01T07:19:28.340Z,3360
2022-10-01T07:20:28.947Z,3376
2022-10-01T07:21:29.540Z,3256
2022-10-01T07:22:30.138Z,3536
2022-10-01T07:23:30.741Z,4352
2022-10-01T07:24:31.339Z,4472
2022-10-01T07:25:31.939Z,3988
2022-10-01T07:26:32.536Z,3436
2022-10-01T07:27:33.150Z,3616
2022-10-01T07:28:33.756Z,3548
2022-10-01T07:29:34.356Z,3440
2022-10-01T07:30:34.953Z,3288
2022-10-01T07:31:35.867Z,3568
2022-10-01T07:32:36.654Z,3700
2022-10-01T07:33:37.256Z,4200
2022-10-01T07:34:37.876Z,5412
2022-10-01T07:35:38.493Z,5768
2022-10-01T07:36:39.090Z,4252
2022-10-01T07:37:39.690Z,3520
2022-10-01T07:38:40.290Z,2856
2022-10-01T07:39:40.888Z,2368
2022-10-01T07:40:41.485Z,2100
2022-10-01T07:41:42.084Z,2548
2022-10-01T07:42:42.681Z,2656
2022-10-01T07:43:43.280Z,3444
2022-10-01T07:44:43.880Z,4120
2022-10-01T07:45:44.528Z,4744
2022-10-01T07:46:45.087Z,5284
2022-10-01T07:47:45.687Z,4168
2022-10-01T07:48:46.303Z,4180
2022-10-01T07:49:46.907Z,4108
2022-10-01T07:50:47.505Z,3604
2022-10-01T07:51:48.108Z,3712
2022-10-01T07:52:48.707Z,3780
2022-10-01T07:53:49.327Z,4160
2022-10-01T07:54:49.928Z,3860
2022-10-01T07:55:50.528Z,3844
2022-10-01T07:56:51.128Z,3816
2022-10-01T07:57:51.726Z,4152
2022-10-01T07:58:52.326Z,4604
2022-10-01T07:59:55.826Z,5684
2022-10-01T08:00:54.575Z,4696
2022-10-01T08:01:55.177Z,4488
2022-10-01T08:02:55.739Z,4100
2022-10-01T08:03:56.336Z,3976
2022-10-01T08:04:56.933Z,3588
2022-10-01T08:05:57.532Z,2892
2022-10-01T08:06:58.130Z,2788
2022-10-01T08:07:58.731Z,2568
2022-10-01T08:08:59.329Z,2692
2022-10-01T08:09:59.927Z,2736
2022-10-01T08:11:00.526Z,3176
2022-10-01T08:12:01.142Z,3480
2022-10-01T08:13:01.740Z,3800
2022-10-01T08:14:02.340Z,4856
2022-10-01T08:15:02.938Z,6068
2022-10-01T08:16:03.538Z,6032
2022-10-01T08:17:04.137Z,5232
2022-10-01T08:18:04.740Z,5204
2022-10-01T08:19:05.357Z,5160
2022-10-01T08:20:05.958Z,4528
2022-10-01T08:21:06.556Z,3232
2022-10-01T08:22:07.158Z,2964
2022-10-01T08:23:07.756Z,3392
2022-10-01T08:24:08.355Z,3564
2022-10-01T08:25:08.972Z,3728
2022-10-01T08:26:09.571Z,4404
2022-10-01T08:27:10.169Z,6132
2022-10-01T08:28:10.808Z,7776
2022-10-01T08:29:16.223Z,8356
2022-10-01T08:30:12.979Z,11120
2022-10-01T08:31:13.583Z,11428
2022-10-01T08:32:14.181Z,11724
2022-10-01T08:33:14.792Z,12928
2022-10-01T08:34:15.380Z,13128
2022-10-01T08:35:15.980Z,11456
2022-10-01T08:36:16.581Z,12912
2022-10-01T08:37:17.184Z,12720
2022-10-01T08:38:17.784Z,12260
2022-10-01T08:39:18.385Z,12180
2022-10-01T08:40:18.985Z,13868
2022-10-01T08:41:23.112Z,13328
2022-10-01T08:42:21.181Z,11684
2022-10-01T08:43:21.781Z,9516
2022-10-01T08:44:22.379Z,8516
2022-10-01T08:45:22.977Z,7396
2022-10-01T08:46:23.577Z,8148
2022-10-01T08:47:24.181Z,11656
2022-10-01T08:48:24.781Z,13884
2022-10-01T08:49:25.381Z,12572
2022-10-01T08:50:26.001Z,10332
2022-10-01T08:51:26.605Z,8384
2022-10-01T08:52:27.204Z,10508
2022-10-01T08:53:27.874Z,9180
2022-10-01T08:54:28.446Z,12568
2022-10-01T08:55:29.043Z,8584
2022-10-01T08:56:29.643Z,5492
2022-10-01T08:57:30.251Z,6584
2022-10-01T08:58:30.844Z,8828
2022-10-01T08:59:31.443Z,7772
2022-10-01T09:00:32.045Z,7776
2022-10-01T09:01:33.139Z,6420
2022-10-01T09:02:33.867Z,6528
2022-10-01T09:03:34.498Z,6352
2022-10-01T09:04:35.151Z,5756
2022-10-01T09:05:35.714Z,5728
2022-10-01T09:06:36.310Z,6780
2022-10-01T09:07:36.931Z,6888
2022-10-01T09:08:37.551Z,7468
2022-10-01T09:09:38.161Z,7640
2022-10-01T09:10:38.760Z,8044
2022-10-01T09:11:39.361Z,8344
2022-10-01T09:12:39.961Z,8988
2022-10-01T09:13:40.560Z,9424
2022-10-01T09:14:41.160Z,10188
2022-10-01T09:15:41.762Z,9084
2022-10-01T09:16:42.423Z,8120
2022-10-01T09:17:43.071Z,8480
2022-10-01T09:18:43.671Z,9544
2022-10-01T09:19:47.760Z,9272
2022-10-01T09:20:45.865Z,8812
2022-10-01T09:21:46.464Z,8768
2022-10-01T09:22:47.065Z,9568
2022-10-01T09:23:47.664Z,9692
2022-10-01T09:24:48.263Z,8916
2022-10-01T09:25:48.863Z,9292
2022-10-01T09:26:49.463Z,9200
2022-10-01T09:27:50.114Z,7512
2022-10-01T09:28:50.679Z,7508
2022-10-01T09:29:51.278Z,8128
2022-10-01T09:30:51.878Z,9724
2022-10-01T09:31:52.563Z,8392
2022-10-01T09:32:53.142Z,7736
2022-10-01T09:33:53.743Z,7672
2022-10-01T09:34:54.342Z,10884
2022-10-01T09:35:54.943Z,11220
2022-10-01T09:36:55.542Z,9560
2022-10-01T09:37:56.142Z,10092
2022-10-01T09:38:56.741Z,9760
2022-10-01T09:39:57.343Z,11576
2022-10-01T09:40:57.942Z,12912
2022-10-01T09:41:58.552Z,14440
2022-10-01T09:42:59.148Z,11932
2022-10-01T09:43:59.748Z,13208
2022-10-01T09:45:00.357Z,15292
2022-10-01T09:46:00.999Z,13304
2022-10-01T09:47:01.673Z,15100
2022-10-01T09:48:02.276Z,12336
2022-10-01T09:49:02.875Z,11660
2022-10-01T09:50:03.479Z,14124
2022-10-01T09:51:04.078Z,14256
2022-10-01T09:52:04.678Z,11948
2022-10-01T09:53:05.276Z,11276
2022-10-01T09:54:05.876Z,10320
2022-10-01T09:55:06.483Z,10504
2022-10-01T09:56:07.089Z,13456
2022-10-01T09:57:07.689Z,15444
2022-10-01T09:58:08.290Z,18112
2022-10-01T09:59:08.887Z,26304
2022-10-01T10:00:09.492Z,34304
2022-10-01T10:01:10.092Z,79360
2022-10-01T10:02:10.771Z,42016
2022-10-01T10:03:11.435Z,43712
2022-10-01T10:04:14.507Z,93312
2022-10-01T10:05:13.619Z,92928
2022-10-01T10:06:14.221Z,85152
2022-10-01T10:07:14.822Z,56416
2022-10-01T10:08:15.433Z,82464
2022-10-01T10:09:16.050Z,67520
2022-10-01T10:10:16.650Z,94560
2022-10-01T10:11:17.250Z,45408
2022-10-01T10:12:17.851Z,91712
2022-10-01T10:13:18.452Z,50208
2022-10-01T10:14:19.056Z,38848
2022-10-01T10:15:19.658Z,54080
2022-10-01T10:16:20.306Z,44192
2022-10-01T10:17:20.872Z,41184
2022-10-01T10:18:23.981Z,65344
2022-10-01T10:19:23.067Z,30240
2022-10-01T10:20:23.693Z,27136
2022-10-01T10:21:24.270Z,29824
2022-10-01T10:22:24.906Z,28320
2022-10-01T10:23:25.503Z,29824
2022-10-01T10:24:26.089Z,31488
2022-10-01T10:25:26.690Z,34976
2022-10-01T10:26:27.294Z,34592
2022-10-01T10:27:27.942Z,36768
2022-10-01T10:28:28.580Z,34048
2022-10-01T10:29:29.155Z,29760
2022-10-01T10:30:29.762Z,28576
2022-10-01T10:31:30.405Z,27584
2022-10-01T10:32:30.980Z,28928
2022-10-01T10:33:31.585Z,30944
2022-10-01T10:34:32.183Z,30368
2022-10-01T10:35:32.783Z,28576
2022-10-01T10:36:33.711Z,28832
2022-10-01T10:37:34.491Z,28640
2022-10-01T10:38:35.092Z,26592
2022-10-01T10:39:35.714Z,28672
2022-10-01T10:40:36.312Z,30720
2022-10-01T10:41:37.498Z,32640
2022-10-01T10:42:38.377Z,36160
2022-10-01T10:43:38.947Z,37280
2022-10-01T10:44:39.610Z,32384
2022-10-01T10:45:40.205Z,29888
2022-10-01T10:46:45.236Z,36640
2022-10-01T10:47:42.383Z,114400
2022-10-01T10:48:42.983Z,97216
2022-10-01T10:49:43.586Z,115072
2022-10-01T10:50:44.199Z,106272
2022-10-01T10:51:44.793Z,97248
2022-10-01T10:52:45.888Z,89952
2022-10-01T10:53:46.464Z,90272
2022-10-01T10:54:47.065Z,99584
2022-10-01T10:55:47.667Z,113664
2022-10-01T10:56:48.269Z,114080
2022-10-01T10:57:48.877Z,100960
2022-10-01T10:58:49.479Z,82496
2022-10-01T10:59:50.100Z,73408
2022-10-01T11:00:50.709Z,76576
2022-10-01T11:01:51.420Z,85632
2022-10-01T11:02:52.067Z,93344
2022-10-01T11:03:52.671Z,101216
2022-10-01T11:04:53.272Z,102528
2022-10-01T11:05:53.874Z,100256
2022-10-01T11:06:54.475Z,85696
2022-10-01T11:07:55.075Z,88032
2022-10-01T11:08:55.693Z,97344
2022-10-01T11:09:56.295Z,91264
2022-10-01T11:10:56.896Z,65984
2022-10-01T11:11:57.498Z,65760
2022-10-01T11:12:58.097Z,80928
2022-10-01T11:13:58.698Z,52480
2022-10-01T11:14:59.299Z,77568
2022-10-01T11:15:59.931Z,87392
2022-10-01T11:17:00.576Z,114048
2022-10-01T11:18:01.202Z,134176
2022-10-01T11:19:01.810Z,143008
2022-10-01T11:20:02.406Z,65664
2022-10-01T11:21:03.007Z,118496
2022-10-01T11:22:03.614Z,76000
2022-10-01T11:23:04.208Z,94720
2022-10-01T11:24:04.809Z,106528
2022-10-01T11:25:05.419Z,114976
2022-10-01T11:26:06.014Z,112000
2022-10-01T11:27:06.618Z,111936
2022-10-01T11:28:07.257Z,113024
2022-10-01T11:29:07.822Z,112960
2022-10-01T11:30:08.425Z,113184
2022-10-01T11:31:09.077Z,116960
2022-10-01T11:32:09.656Z,110272
2022-10-01T11:33:10.258Z,103424
2022-10-01T11:34:10.862Z,108512
2022-10-01T11:35:11.486Z,115552
2022-10-01T11:36:12.082Z,112992
2022-10-01T11:37:12.688Z,117248
2022-10-01T11:38:13.289Z,107104
2022-10-01T11:39:13.888Z,94112
2022-10-01T11:40:14.491Z,76096
2022-10-01T11:41:15.092Z,47520
2022-10-01T11:42:15.692Z,23104
2022-10-01T11:43:16.295Z,28768
2022-10-01T11:44:16.895Z,97248
2022-10-01T11:45:17.494Z,95680
2022-10-01T11:46:18.125Z,79328
2022-10-01T11:47:18.696Z,82848
2022-10-01T11:48:19.299Z,98656
2022-10-01T11:49:19.903Z,109088
2022-10-01T11:50:20.503Z,113568
2022-10-01T11:51:21.105Z,48416
2022-10-01T11:52:21.709Z,37312
2022-10-01T11:53:22.325Z,33664
2022-10-01T11:54:22.925Z,87008
2022-10-01T11:55:23.529Z,39456
2022-10-01T11:56:24.151Z,38368
2022-10-01T11:57:24.751Z,41152
2022-10-01T11:58:25.351Z,40256
2022-10-01T11:59:25.953Z,41984
2022-10-01T12:00:27.452Z,36736
2022-10-01T12:01:28.119Z,33888
2022-10-01T12:02:28.717Z,25408
2022-10-01T12:03:29.320Z,16164
2022-10-01T12:04:29.918Z,10996
2022-10-01T12:05:30.548Z,11916
2022-10-01T12:06:34.410Z,16800
2022-10-01T12:07:32.743Z,21376
2022-10-01T12:08:33.342Z,25248
2022-10-01T12:09:33.964Z,28128
2022-10-01T12:10:34.567Z,31456
2022-10-01T12:11:35.187Z,29472
2022-10-01T12:12:35.786Z,26752
2022-10-01T12:13:36.388Z,23360
2022-10-01T12:14:36.988Z,19936
2022-10-01T12:15:37.587Z,16540
2022-10-01T12:16:38.693Z,17548
2022-10-01T12:17:38.802Z,24896
2022-10-01T12:18:39.403Z,32096
2022-10-01T12:19:40.009Z,33344
2022-10-01T12:20:40.605Z,30400
2022-10-01T12:21:41.208Z,26080
2022-10-01T12:22:41.807Z,25280
2022-10-01T12:23:42.407Z,23744
2022-10-01T12:24:43.008Z,39168
2022-10-01T12:25:43.609Z,61376
2022-10-01T12:26:44.208Z,57568
2022-10-01T12:27:44.851Z,84256
2022-10-01T12:28:50.668Z,51456
2022-10-01T12:29:47.025Z,35616
2022-10-01T12:30:47.627Z,34752
2022-10-01T12:31:48.291Z,31168
2022-10-01T12:32:48.876Z,30336
2022-10-01T12:33:49.479Z,28448
2022-10-01T12:34:54.044Z,24512
2022-10-01T12:35:51.671Z,20832
2022-10-01T12:36:52.271Z,20448
2022-10-01T12:37:52.871Z,21888
2022-10-01T12:38:53.469Z,24512
2022-10-01T12:39:54.071Z,27616
2022-10-01T12:40:54.670Z,31808
2022-10-01T12:41:55.272Z,126592
2022-10-01T12:42:55.883Z,130016
2022-10-01T12:43:56.477Z,112736
2022-10-01T12:44:57.077Z,93344
2022-10-01T12:45:57.714Z,84320
2022-10-01T12:46:58.276Z,92352
2022-10-01T12:47:58.877Z,102176
2022-10-01T12:48:59.480Z,102976
2022-10-01T12:50:00.104Z,94400
2022-10-01T12:51:00.680Z,16024
2022-10-01T12:52:01.282Z,17440
2022-10-01T12:53:01.881Z,19008
2022-10-01T12:54:02.481Z,80992
2022-10-01T12:55:03.082Z,38464
2022-10-01T12:56:03.681Z,47104
2022-10-01T12:57:04.284Z,34240
2022-10-01T12:58:04.885Z,110880
2022-10-01T12:59:05.490Z,110496
2022-10-01T13:00:06.090Z,107488
2022-10-01T13:01:06.734Z,107040
2022-10-01T13:02:07.391Z,119168
2022-10-01T13:03:07.961Z,126496
2022-10-01T13:04:08.562Z,122368
2022-10-01T13:05:09.165Z,104128
2022-10-01T13:06:09.764Z,87680
2022-10-01T13:07:10.367Z,87328
2022-10-01T13:08:10.987Z,94112
2022-10-01T13:09:11.591Z,92448
2022-10-01T13:10:12.191Z,83296
2022-10-01T13:11:12.797Z,80768
2022-10-01T13:12:13.394Z,84672
2022-10-01T13:13:13.996Z,97952
2022-10-01T13:14:14.600Z,84256
2022-10-01T13:15:15.200Z,43488
2022-10-01T13:16:15.860Z,120192
2022-10-01T13:17:16.406Z,113856
2022-10-01T13:18:17.008Z,106144
2022-10-01T13:19:17.609Z,107232
2022-10-01T13:20:18.210Z,47840
2022-10-01T13:21:18.814Z,125120
2022-10-01T13:22:19.415Z,129504
2022-10-01T13:23:20.037Z,41568
2022-10-01T13:24:20.659Z,128704
2022-10-01T13:25:21.262Z,123808
2022-10-01T13:26:21.918Z,75936
2022-10-01T13:27:22.486Z,100512
2022-10-01T13:28:23.168Z,95936
2022-10-01T13:29:23.743Z,44192
2022-10-01T13:30:24.344Z,51136
2022-10-01T13:31:24.981Z,31680
2022-10-01T13:32:25.543Z,35136
2022-10-01T13:33:26.172Z,25888
2022-10-01T13:34:26.743Z,19808
2022-10-01T13:35:29.493Z,16472
2022-10-01T13:36:28.933Z,14096
2022-10-01T13:37:29.536Z,12580
2022-10-01T13:38:30.133Z,11940
2022-10-01T13:39:32.036Z,10476
2022-10-01T13:40:32.325Z,9252
2022-10-01T13:41:33.360Z,8252
2022-10-01T13:42:33.540Z,7584
2022-10-01T13:43:34.141Z,7064
2022-10-01T13:44:34.737Z,6292
2022-10-01T13:45:35.339Z,4516
2022-10-01T13:46:36.230Z,3064
2022-10-01T13:47:36.551Z,1884
2022-10-01T13:48:37.149Z,848
2022-10-01T13:49:37.749Z,600
2022-10-01T13:50:38.343Z,572